Terminal Aerodrome Forecast
Issued by NWS Sterling, VA

Home | Current Version | Previous Version | Text Only | Print | Product List | Glossary On
Versions: 1 2 3 4 5 6 7 8 9 10 11 12 13 14 15 16 17 18
000
FTUS41 KLWX 021743
TAFMRB
TAF
KMRB 021743Z 0218/0318 20007KT P6SM FEW070
     FM022200 29005KT P6SM BKN060
     FM030000 33004KT P6SM -RA OVC050
     FM030600 VRB03KT 3SM -RA OVC008
     FM031600 35004KT 6SM -SHRA OVC025=

USA.gov is the U.S. government's official web portal to all federal, state and local government web resources and services.